createdAt,value
2022-10-01T00:04:30.022Z,5.31
2022-10-01T00:19:20.936Z,4.81
2022-10-01T00:34:12.622Z,4.28
2022-10-01T00:49:06.136Z,4.44
2022-10-01T01:04:00.156Z,4.23
2022-10-01T01:18:52.665Z,4.34
2022-10-01T01:33:46.122Z,4.72
2022-10-01T01:48:37.511Z,4.10
2022-10-01T02:03:29.332Z,3.57
2022-10-01T02:18:41.509Z,3.47
2022-10-01T02:33:38.516Z,3.11
2022-10-01T02:48:29.365Z,2.71
2022-10-01T03:03:20.705Z,4.31
2022-10-01T03:18:12.341Z,2.74
2022-10-01T03:33:03.732Z,2.02
2022-10-01T03:47:54.715Z,1.98
2022-10-01T04:02:45.909Z,2.91
2022-10-01T04:17:37.458Z,1.60
2022-10-01T04:32:28.678Z,1.54
2022-10-01T04:47:20.330Z,1.96
2022-10-01T05:02:11.666Z,1.72
2022-10-01T05:17:02.381Z,1.71
2022-10-01T05:31:53.076Z,2.04
2022-10-01T05:46:44.581Z,1.98
2022-10-01T06:01:35.940Z,2.03
2022-10-01T06:16:27.054Z,1.94
2022-10-01T06:31:18.342Z,2.11
2022-10-01T06:46:09.182Z,1.82
2022-10-01T07:01:00.246Z,2.12
2022-10-01T07:15:51.121Z,2.06
2022-10-01T07:30:42.278Z,2.09
2022-10-01T07:45:33.038Z,1.91
2022-10-01T08:00:35.446Z,2.14
2022-10-01T08:15:21.859Z,2.17
2022-10-01T08:30:13.206Z,2.04
2022-10-01T08:45:04.877Z,2.30
2022-10-01T08:59:55.985Z,3.20
2022-10-01T09:15:02.156Z,2.28
2022-10-01T09:29:59.206Z,2.48
2022-10-01T09:44:50.961Z,2.10
2022-10-01T09:59:57.635Z,1.81
2022-10-01T10:14:54.076Z,2.00
2022-10-01T10:29:45.055Z,1.70
2022-10-01T10:44:37.788Z,1.84
2022-10-01T11:14:23.985Z,1.50
2022-10-01T11:29:23.292Z,1.49
2022-10-01T11:44:19.410Z,1.60
2022-10-01T11:59:13.902Z,1.30
2022-10-01T12:14:10.932Z,1.19
2022-10-01T12:29:11.199Z,1.00
2022-10-01T12:44:42.222Z,1.03
2022-10-01T12:59:41.812Z,0.96
2022-10-01T13:14:36.693Z,0.90
2022-10-01T13:29:30.450Z,0.92
2022-10-01T13:44:24.896Z,0.72
2022-10-01T13:59:19.394Z,0.90
2022-10-01T14:14:45.099Z,0.84
2022-10-01T14:59:49.702Z,0.86
2022-10-01T15:14:40.632Z,0.88
2022-10-01T15:29:31.674Z,0.80
2022-10-01T15:44:38.764Z,0.90
2022-10-01T15:59:34.409Z,0.90
2022-10-01T16:14:28.392Z,0.94
2022-10-01T16:29:22.626Z,0.90
2022-10-01T16:44:13.512Z,0.87
2022-10-01T16:59:04.948Z,1.00
2022-10-01T17:13:56.720Z,1.20
2022-10-01T17:28:47.349Z,1.17
2022-10-01T17:43:38.272Z,1.46
2022-10-01T17:58:29.369Z,1.57
2022-10-01T18:13:21.020Z,2.03
2022-10-01T18:28:12.527Z,1.79
2022-10-01T18:43:08.989Z,2.36
2022-10-01T18:58:18.892Z,1.96
2022-10-01T19:13:17.925Z,1.66
2022-10-01T19:28:29.193Z,1.69
2022-10-01T19:43:47.651Z,1.93
2022-10-01T19:58:43.458Z,1.91
2022-10-01T20:13:43.517Z,1.92
2022-10-01T21:29:05.490Z,1.81
2022-10-01T21:44:13.071Z,1.90
2022-10-01T21:59:29.969Z,2.11
2022-10-01T22:14:27.117Z,2.13
2022-10-01T22:29:18.512Z,1.87
2022-10-01T22:44:12.180Z,2.21
2022-10-01T22:59:09.613Z,1.60
2022-10-01T23:14:26.486Z,2.16
2022-10-01T23:29:35.564Z,2.10
2022-10-01T23:44:44.255Z,1.98
2022-10-01T23:59:57.968Z,1.97
